Hlavní strana
METAR-TAF:

METAR-TAF

Letiště :

Letecká základna

Niederstetten, Německo

zeměpisná šířka: 49-24N, zeměpisná délka: 009-58E, výška: 468 m

Aktuální stav počasí

Zpráva byla vytvořena před 59 minutami, v 09:20 UTC
Severozápadní vítr 4 kt
Teplota 21°C
Vlhkost vzduchu 64%
Tlak 1022 hPa
Viditelnost 10 km a více
Skoro jasno ve výšce 2800 ft

METAR: ETHN 180920Z 32004KT 9999 FEW028 21/14 Q1022 BLU+

Čas: 12:19 (10:19 UTC)

Předpověď počasí

Zpráva byla vytvořena před 24 hodinami a 48 minutami, v 09:31 UTC
Předpověď platná od 17 v 08 UTC do 17 v 17 UTC
Jihojihovýchodní vítr 5 kt
Viditelnost: 1015 m
Skoro jasno ve výšce 5000 ft
Polojasno ve výšce 30000 ft

TAF: ETHN 170931Z 1708/1717 16005KT 9999 NSW FEW050 SCT300 CANCEL 1015

Stav a předpovědi počasí z více než 4 000 letišť (zprávy METAR a TAF).

Červené a žluté tečky na mapě představují dostupné meteorologické stanice.

Když kurzor umístíte na tečku, zobrazí se název stanice.

Pak kliknutím zobrazíte stav a předpověď počasí.

Chcete-li změnit mapu, kliknutím na zelené tlačítko se znaménkem +mapu přiblížíte, kliknutím na zelené tlačítko se znaménkem – mapu oddálíte a kliknutím na zelené šipky přejdete na sousední mapy.


METAR-TAF: